sensor_id;sensor_type;location;lat;lon;timestamp;P1;durP1;ratioP1;P2;durP2;ratioP2
15958;SDS011;8078;47.822;9.402;2022-11-21T00:00:54;14.33;;;11.00;;
15958;SDS011;8078;47.822;9.402;2022-11-21T00:03:19;16.87;;;11.40;;
15958;SDS011;8078;47.822;9.402;2022-11-21T00:05:46;18.30;;;10.10;;
15958;SDS011;8078;47.822;9.402;2022-11-21T00:08:14;15.87;;;10.70;;
15958;SDS011;8078;47.822;9.402;2022-11-21T00:10:41;17.30;;;11.40;;
15958;SDS011;8078;47.822;9.402;2022-11-21T00:13:10;18.90;;;11.40;;
15958;SDS011;8078;47.822;9.402;2022-11-21T00:15:37;14.77;;;10.23;;
15958;SDS011;8078;47.822;9.402;2022-11-21T00:18:03;454.60;;;35.20;;
15958;SDS011;8078;47.822;9.402;2022-11-21T00:20:29;690.03;;;64.67;;
15958;SDS011;8078;47.822;9.402;2022-11-21T00:22:55;512.67;;;41.40;;
15958;SDS011;8078;47.822;9.402;2022-11-21T00:25:20;869.60;;;70.17;;
15958;SDS011;8078;47.822;9.402;2022-11-21T00:27:46;867.70;;;69.20;;
15958;SDS011;8078;47.822;9.402;2022-11-21T00:30:12;503.37;;;41.27;;
15958;SDS011;8078;47.822;9.402;2022-11-21T00:32:38;325.93;;;30.03;;
15958;SDS011;8078;47.822;9.402;2022-11-21T00:35:04;370.73;;;35.80;;
15958;SDS011;8078;47.822;9.402;2022-11-21T00:37:30;43.23;;;15.10;;
15958;SDS011;8078;47.822;9.402;2022-11-21T00:39:56;264.93;;;31.83;;
15958;SDS011;8078;47.822;9.402;2022-11-21T00:42:22;111.37;;;17.47;;
15958;SDS011;8078;47.822;9.402;2022-11-21T00:44:48;538.70;;;44.30;;
15958;SDS011;8078;47.822;9.402;2022-11-21T00:47:13;306.53;;;29.40;;
15958;SDS011;8078;47.822;9.402;2022-11-21T00:49:39;688.90;;;54.97;;
15958;SDS011;8078;47.822;9.402;2022-11-21T00:52:04;27.10;;;13.13;;
15958;SDS011;8078;47.822;9.402;2022-11-21T00:54:30;163.77;;;20.23;;
15958;SDS011;8078;47.822;9.402;2022-11-21T00:56:55;18.77;;;12.57;;
15958;SDS011;8078;47.822;9.402;2022-11-21T00:59:21;13.80;;;8.10;;
15958;SDS011;8078;47.822;9.402;2022-11-21T01:01:46;13.30;;;8.07;;
15958;SDS011;8078;47.822;9.402;2022-11-21T01:04:12;12.03;;;7.50;;
15958;SDS011;8078;47.822;9.402;2022-11-21T01:06:38;10.23;;;6.73;;
15958;SDS011;8078;47.822;9.402;2022-11-21T01:09:03;11.47;;;6.80;;
15958;SDS011;8078;47.822;9.402;2022-11-21T01:11:29;133.47;;;13.23;;
15958;SDS011;8078;47.822;9.402;2022-11-21T01:13:55;65.47;;;10.23;;
15958;SDS011;8078;47.822;9.402;2022-11-21T01:16:22;559.97;;;42.33;;
15958;SDS011;8078;47.822;9.402;2022-11-21T01:18:49;99.17;;;14.07;;
15958;SDS011;8078;47.822;9.402;2022-11-21T01:21:19;126.37;;;15.37;;
15958;SDS011;8078;47.822;9.402;2022-11-21T01:23:49;12.03;;;10.57;;
15958;SDS011;8078;47.822;9.402;2022-11-21T01:26:17;17.17;;;9.87;;
15958;SDS011;8078;47.822;9.402;2022-11-21T01:28:44;508.00;;;39.70;;
15958;SDS011;8078;47.822;9.402;2022-11-21T01:31:14;21.60;;;10.63;;
15958;SDS011;8078;47.822;9.402;2022-11-21T01:33:42;39.27;;;12.23;;
15958;SDS011;8078;47.822;9.402;2022-11-21T01:36:12;25.27;;;12.97;;
15958;SDS011;8078;47.822;9.402;2022-11-21T01:38:43;18.93;;;11.37;;
15958;SDS011;8078;47.822;9.402;2022-11-21T01:41:11;46.93;;;13.67;;
15958;SDS011;8078;47.822;9.402;2022-11-21T01:43:37;133.27;;;20.83;;
15958;SDS011;8078;47.822;9.402;2022-11-21T01:46:24;27.27;;;13.70;;
15958;SDS011;8078;47.822;9.402;2022-11-21T01:51:35;736.97;;;56.03;;
15958;SDS011;8078;47.822;9.402;2022-11-21T01:59:34;93.90;;;15.90;;
15958;SDS011;8078;47.822;9.402;2022-11-21T02:02:07;333.67;;;30.10;;
15958;SDS011;8078;47.822;9.402;2022-11-21T02:04:36;563.83;;;46.10;;
15958;SDS011;8078;47.822;9.402;2022-11-21T02:07:04;744.93;;;64.87;;
15958;SDS011;8078;47.822;9.402;2022-11-21T02:09:32;285.50;;;25.10;;
15958;SDS011;8078;47.822;9.402;2022-11-21T02:12:07;731.10;;;56.97;;
15958;SDS011;8078;47.822;9.402;2022-11-21T02:14:37;630.83;;;51.77;;
15958;SDS011;8078;47.822;9.402;2022-11-21T02:17:05;139.57;;;19.50;;
15958;SDS011;8078;47.822;9.402;2022-11-21T02:22:20;16.73;;;10.90;;
15958;SDS011;8078;47.822;9.402;2022-11-21T02:25:07;32.77;;;10.83;;
15958;SDS011;8078;47.822;9.402;2022-11-21T02:27:38;20.57;;;9.13;;
15958;SDS011;8078;47.822;9.402;2022-11-21T02:30:04;31.30;;;12.00;;
15958;SDS011;8078;47.822;9.402;2022-11-21T02:32:32;50.10;;;11.63;;
15958;SDS011;8078;47.822;9.402;2022-11-21T02:35:01;14.93;;;9.73;;
15958;SDS011;8078;47.822;9.402;2022-11-21T02:37:27;54.97;;;12.70;;
15958;SDS011;8078;47.822;9.402;2022-11-21T02:39:53;171.17;;;19.97;;
15958;SDS011;8078;47.822;9.402;2022-11-21T02:42:27;157.67;;;18.93;;
15958;SDS011;8078;47.822;9.402;2022-11-21T02:45:17;17.63;;;11.40;;
15958;SDS011;8078;47.822;9.402;2022-11-21T02:47:51;41.60;;;11.90;;
15958;SDS011;8078;47.822;9.402;2022-11-21T02:50:21;19.50;;;10.80;;
15958;SDS011;8078;47.822;9.402;2022-11-21T02:52:50;38.50;;;11.40;;
15958;SDS011;8078;47.822;9.402;2022-11-21T02:55:16;27.00;;;12.03;;
15958;SDS011;8078;47.822;9.402;2022-11-21T02:57:41;183.77;;;23.67;;
15958;SDS011;8078;47.822;9.402;2022-11-21T03:00:08;13.67;;;8.93;;
15958;SDS011;8078;47.822;9.402;2022-11-21T03:02:35;102.50;;;15.87;;
15958;SDS011;8078;47.822;9.402;2022-11-21T03:05:01;426.97;;;37.90;;
15958;SDS011;8078;47.822;9.402;2022-11-21T03:07:28;17.17;;;10.43;;
15958;SDS011;8078;47.822;9.402;2022-11-21T03:09:54;460.80;;;40.80;;
15958;SDS011;8078;47.822;9.402;2022-11-21T03:12:19;94.90;;;15.10;;
15958;SDS011;8078;47.822;9.402;2022-11-21T03:14:45;315.83;;;29.23;;
15958;SDS011;8078;47.822;9.402;2022-11-21T03:17:10;439.13;;;38.00;;
15958;SDS011;8078;47.822;9.402;2022-11-21T03:19:36;38.73;;;9.97;;
15958;SDS011;8078;47.822;9.402;2022-11-21T03:22:01;11.23;;;7.67;;
15958;SDS011;8078;47.822;9.402;2022-11-21T03:24:27;585.00;;;45.90;;
15958;SDS011;8078;47.822;9.402;2022-11-21T03:26:53;117.70;;;15.57;;
15958;SDS011;8078;47.822;9.402;2022-11-21T03:29:18;63.47;;;14.13;;
15958;SDS011;8078;47.822;9.402;2022-11-21T03:31:44;14.10;;;10.00;;
15958;SDS011;8078;47.822;9.402;2022-11-21T03:34:10;238.93;;;24.43;;
15958;SDS011;8078;47.822;9.402;2022-11-21T03:36:35;248.17;;;24.93;;
15958;SDS011;8078;47.822;9.402;2022-11-21T03:39:01;15.30;;;9.40;;
15958;SDS011;8078;47.822;9.402;2022-11-21T03:41:27;539.13;;;43.57;;
15958;SDS011;8078;47.822;9.402;2022-11-21T03:43:53;11.87;;;8.57;;
15958;SDS011;8078;47.822;9.402;2022-11-21T03:46:19;11.50;;;8.53;;
15958;SDS011;8078;47.822;9.402;2022-11-21T03:48:44;9.20;;;8.03;;
15958;SDS011;8078;47.822;9.402;2022-11-21T03:51:10;8.53;;;6.70;;
15958;SDS011;8078;47.822;9.402;2022-11-21T03:53:36;14.17;;;7.40;;
15958;SDS011;8078;47.822;9.402;2022-11-21T03:56:01;16.13;;;7.10;;
15958;SDS011;8078;47.822;9.402;2022-11-21T03:58:27;7.87;;;6.03;;
15958;SDS011;8078;47.822;9.402;2022-11-21T04:00:52;11.10;;;6.20;;
15958;SDS011;8078;47.822;9.402;2022-11-21T04:03:18;8.90;;;6.40;;
15958;SDS011;8078;47.822;9.402;2022-11-21T04:05:43;10.83;;;5.73;;
15958;SDS011;8078;47.822;9.402;2022-11-21T04:08:09;68.77;;;7.83;;
15958;SDS011;8078;47.822;9.402;2022-11-21T04:10:34;14.73;;;8.00;;
15958;SDS011;8078;47.822;9.402;2022-11-21T04:13:00;12.33;;;6.10;;
15958;SDS011;8078;47.822;9.402;2022-11-21T04:15:25;11.57;;;5.17;;
15958;SDS011;8078;47.822;9.402;2022-11-21T04:17:51;199.23;;;18.87;;
15958;SDS011;8078;47.822;9.402;2022-11-21T04:20:17;9.60;;;6.80;;
15958;SDS011;8078;47.822;9.402;2022-11-21T04:22:42;18.30;;;8.33;;
15958;SDS011;8078;47.822;9.402;2022-11-21T04:25:08;74.77;;;10.43;;
15958;SDS011;8078;47.822;9.402;2022-11-21T04:27:33;8.13;;;5.20;;
15958;SDS011;8078;47.822;9.402;2022-11-21T04:29:59;10.77;;;6.80;;
15958;SDS011;8078;47.822;9.402;2022-11-21T04:32:25;8.53;;;5.40;;
15958;SDS011;8078;47.822;9.402;2022-11-21T04:34:50;7.03;;;5.13;;
15958;SDS011;8078;47.822;9.402;2022-11-21T04:37:16;244.50;;;18.33;;
15958;SDS011;8078;47.822;9.402;2022-11-21T04:39:41;446.17;;;30.90;;
15958;SDS011;8078;47.822;9.402;2022-11-21T04:42:07;489.83;;;33.53;;
15958;SDS011;8078;47.822;9.402;2022-11-21T04:44:32;606.47;;;39.90;;
15958;SDS011;8078;47.822;9.402;2022-11-21T04:46:58;545.87;;;41.93;;
15958;SDS011;8078;47.822;9.402;2022-11-21T04:49:24;624.97;;;48.13;;
15958;SDS011;8078;47.822;9.402;2022-11-21T04:51:50;752.27;;;54.87;;
15958;SDS011;8078;47.822;9.402;2022-11-21T04:54:15;690.17;;;53.03;;
15958;SDS011;8078;47.822;9.402;2022-11-21T04:56:41;503.07;;;36.20;;
15958;SDS011;8078;47.822;9.402;2022-11-21T04:59:06;702.60;;;52.57;;
15958;SDS011;8078;47.822;9.402;2022-11-21T05:01:36;105.03;;;14.93;;
15958;SDS011;8078;47.822;9.402;2022-11-21T05:04:02;711.77;;;55.03;;
15958;SDS011;8078;47.822;9.402;2022-11-21T05:06:27;357.20;;;25.43;;
15958;SDS011;8078;47.822;9.402;2022-11-21T05:08:53;582.10;;;44.40;;
15958;SDS011;8078;47.822;9.402;2022-11-21T05:11:18;32.13;;;8.93;;
15958;SDS011;8078;47.822;9.402;2022-11-21T05:14:02;298.97;;;24.00;;
15958;SDS011;8078;47.822;9.402;2022-11-21T05:16:28;217.17;;;19.13;;
15958;SDS011;8078;47.822;9.402;2022-11-21T05:18:56;163.50;;;14.33;;
15958;SDS011;8078;47.822;9.402;2022-11-21T05:21:21;10.50;;;5.40;;
15958;SDS011;8078;47.822;9.402;2022-11-21T05:23:47;71.13;;;9.37;;
15958;SDS011;8078;47.822;9.402;2022-11-21T05:26:12;34.03;;;6.43;;
15958;SDS011;8078;47.822;9.402;2022-11-21T05:28:38;102.03;;;10.60;;
15958;SDS011;8078;47.822;9.402;2022-11-21T05:31:03;33.97;;;5.77;;
15958;SDS011;8078;47.822;9.402;2022-11-21T05:33:29;309.90;;;23.27;;
15958;SDS011;8078;47.822;9.402;2022-11-21T05:35:54;92.37;;;10.40;;
15958;SDS011;8078;47.822;9.402;2022-11-21T05:38:20;60.70;;;7.83;;
15958;SDS011;8078;47.822;9.402;2022-11-21T05:40:45;30.47;;;5.83;;
15958;SDS011;8078;47.822;9.402;2022-11-21T05:43:11;5.10;;;3.40;;
15958;SDS011;8078;47.822;9.402;2022-11-21T05:45:55;8.90;;;3.80;;
15958;SDS011;8078;47.822;9.402;2022-11-21T05:48:21;4.13;;;3.43;;
15958;SDS011;8078;47.822;9.402;2022-11-21T05:50:47;5.50;;;2.73;;
15958;SDS011;8078;47.822;9.402;2022-11-21T05:53:16;63.20;;;6.20;;
15958;SDS011;8078;47.822;9.402;2022-11-21T05:55:42;20.33;;;5.93;;
15958;SDS011;8078;47.822;9.402;2022-11-21T05:58:07;7.30;;;3.37;;
15958;SDS011;8078;47.822;9.402;2022-11-21T06:00:34;3.47;;;2.90;;
15958;SDS011;8078;47.822;9.402;2022-11-21T06:03:00;3.83;;;2.80;;
15958;SDS011;8078;47.822;9.402;2022-11-21T06:05:44;3.77;;;3.03;;
15958;SDS011;8078;47.822;9.402;2022-11-21T06:08:10;2.93;;;2.57;;
15958;SDS011;8078;47.822;9.402;2022-11-21T06:10:36;5.73;;;3.17;;
15958;SDS011;8078;47.822;9.402;2022-11-21T06:13:01;3.97;;;3.10;;
15958;SDS011;8078;47.822;9.402;2022-11-21T06:15:28;5.50;;;3.20;;
15958;SDS011;8078;47.822;9.402;2022-11-21T06:17:54;6.67;;;4.27;;
15958;SDS011;8078;47.822;9.402;2022-11-21T06:20:19;102.37;;;11.80;;
15958;SDS011;8078;47.822;9.402;2022-11-21T06:22:45;14.77;;;6.27;;
15958;SDS011;8078;47.822;9.402;2022-11-21T06:25:10;74.00;;;9.37;;
15958;SDS011;8078;47.822;9.402;2022-11-21T06:27:36;403.33;;;30.90;;
15958;SDS011;8078;47.822;9.402;2022-11-21T06:30:02;467.90;;;33.60;;
15958;SDS011;8078;47.822;9.402;2022-11-21T06:32:28;521.23;;;34.83;;
15958;SDS011;8078;47.822;9.402;2022-11-21T06:34:54;450.40;;;26.47;;
15958;SDS011;8078;47.822;9.402;2022-11-21T06:37:19;577.33;;;37.10;;
15958;SDS011;8078;47.822;9.402;2022-11-21T06:39:45;437.47;;;27.77;;
15958;SDS011;8078;47.822;9.402;2022-11-21T06:42:11;546.60;;;34.20;;
15958;SDS011;8078;47.822;9.402;2022-11-21T06:44:36;484.10;;;28.87;;
15958;SDS011;8078;47.822;9.402;2022-11-21T06:47:02;426.93;;;29.43;;
15958;SDS011;8078;47.822;9.402;2022-11-21T06:49:27;470.17;;;29.57;;
15958;SDS011;8078;47.822;9.402;2022-11-21T06:51:53;385.03;;;26.30;;
15958;SDS011;8078;47.822;9.402;2022-11-21T06:54:18;297.63;;;19.80;;
15958;SDS011;8078;47.822;9.402;2022-11-21T06:56:48;345.37;;;21.87;;
15958;SDS011;8078;47.822;9.402;2022-11-21T06:59:16;45.57;;;7.60;;
15958;SDS011;8078;47.822;9.402;2022-11-21T07:01:41;175.23;;;14.23;;
15958;SDS011;8078;47.822;9.402;2022-11-21T07:04:07;469.33;;;32.87;;
15958;SDS011;8078;47.822;9.402;2022-11-21T07:06:33;178.07;;;14.77;;
15958;SDS011;8078;47.822;9.402;2022-11-21T07:08:58;389.13;;;26.70;;
15958;SDS011;8078;47.822;9.402;2022-11-21T07:11:24;451.10;;;27.30;;
15958;SDS011;8078;47.822;9.402;2022-11-21T07:13:49;455.03;;;28.20;;
15958;SDS011;8078;47.822;9.402;2022-11-21T07:16:15;526.30;;;32.47;;
15958;SDS011;8078;47.822;9.402;2022-11-21T07:18:41;408.20;;;24.93;;
15958;SDS011;8078;47.822;9.402;2022-11-21T07:21:07;124.27;;;10.93;;
15958;SDS011;8078;47.822;9.402;2022-11-21T07:23:33;437.17;;;28.57;;
15958;SDS011;8078;47.822;9.402;2022-11-21T07:25:59;532.20;;;33.50;;
15958;SDS011;8078;47.822;9.402;2022-11-21T07:28:26;443.43;;;33.23;;
15958;SDS011;8078;47.822;9.402;2022-11-21T07:30:56;312.83;;;21.23;;
15958;SDS011;8078;47.822;9.402;2022-11-21T07:33:22;131.13;;;13.17;;
15958;SDS011;8078;47.822;9.402;2022-11-21T07:35:47;474.40;;;35.70;;
15958;SDS011;8078;47.822;9.402;2022-11-21T07:38:13;421.60;;;27.63;;
15958;SDS011;8078;47.822;9.402;2022-11-21T07:40:38;232.37;;;20.60;;
15958;SDS011;8078;47.822;9.402;2022-11-21T07:43:04;135.70;;;16.17;;
15958;SDS011;8078;47.822;9.402;2022-11-21T07:45:30;238.57;;;20.53;;
15958;SDS011;8078;47.822;9.402;2022-11-21T07:47:57;80.40;;;11.87;;
15958;SDS011;8078;47.822;9.402;2022-11-21T07:50:23;68.37;;;8.80;;
15958;SDS011;8078;47.822;9.402;2022-11-21T07:52:49;76.37;;;9.40;;
15958;SDS011;8078;47.822;9.402;2022-11-21T07:55:14;101.77;;;11.47;;
15958;SDS011;8078;47.822;9.402;2022-11-21T07:57:40;202.93;;;18.37;;
15958;SDS011;8078;47.822;9.402;2022-11-21T08:00:05;543.60;;;36.93;;
15958;SDS011;8078;47.822;9.402;2022-11-21T08:02:32;668.50;;;50.00;;
15958;SDS011;8078;47.822;9.402;2022-11-21T08:04:57;341.10;;;23.70;;
15958;SDS011;8078;47.822;9.402;2022-11-21T08:07:23;315.77;;;25.03;;
15958;SDS011;8078;47.822;9.402;2022-11-21T08:09:48;16.67;;;5.40;;
15958;SDS011;8078;47.822;9.402;2022-11-21T08:12:14;35.47;;;7.20;;
15958;SDS011;8078;47.822;9.402;2022-11-21T08:14:40;44.30;;;7.43;;
15958;SDS011;8078;47.822;9.402;2022-11-21T08:17:06;174.27;;;15.20;;
15958;SDS011;8078;47.822;9.402;2022-11-21T08:19:32;136.07;;;12.03;;
15958;SDS011;8078;47.822;9.402;2022-11-21T08:21:58;14.60;;;6.03;;
15958;SDS011;8078;47.822;9.402;2022-11-21T08:24:24;128.07;;;10.20;;
15958;SDS011;8078;47.822;9.402;2022-11-21T08:26:50;14.53;;;5.50;;
15958;SDS011;8078;47.822;9.402;2022-11-21T08:29:16;38.17;;;7.27;;
15958;SDS011;8078;47.822;9.402;2022-11-21T08:31:42;94.10;;;9.57;;
15958;SDS011;8078;47.822;9.402;2022-11-21T08:34:08;12.03;;;4.90;;
15958;SDS011;8078;47.822;9.402;2022-11-21T08:36:34;53.80;;;7.73;;
15958;SDS011;8078;47.822;9.402;2022-11-21T08:39:00;11.53;;;5.30;;
15958;SDS011;8078;47.822;9.402;2022-11-21T08:41:26;7.60;;;4.77;;
15958;SDS011;8078;47.822;9.402;2022-11-21T08:44:10;105.63;;;10.17;;
15958;SDS011;8078;47.822;9.402;2022-11-21T08:46:36;8.63;;;4.10;;
15958;SDS011;8078;47.822;9.402;2022-11-21T08:49:02;53.03;;;6.97;;
15958;SDS011;8078;47.822;9.402;2022-11-21T08:51:28;8.33;;;4.17;;
15958;SDS011;8078;47.822;9.402;2022-11-21T08:53:54;42.37;;;5.43;;
15958;SDS011;8078;47.822;9.402;2022-11-21T08:56:19;90.33;;;7.57;;
15958;SDS011;8078;47.822;9.402;2022-11-21T08:58:45;14.17;;;4.80;;
15958;SDS011;8078;47.822;9.402;2022-11-21T09:01:10;8.57;;;3.80;;
15958;SDS011;8078;47.822;9.402;2022-11-21T09:03:36;50.70;;;6.30;;
15958;SDS011;8078;47.822;9.402;2022-11-21T09:06:01;143.40;;;11.83;;
15958;SDS011;8078;47.822;9.402;2022-11-21T09:08:27;27.27;;;5.50;;
15958;SDS011;8078;47.822;9.402;2022-11-21T09:10:53;374.20;;;24.27;;
15958;SDS011;8078;47.822;9.402;2022-11-21T09:13:19;41.37;;;6.17;;
15958;SDS011;8078;47.822;9.402;2022-11-21T09:15:44;31.97;;;5.97;;
15958;SDS011;8078;47.822;9.402;2022-11-21T09:18:29;22.40;;;4.70;;
15958;SDS011;8078;47.822;9.402;2022-11-21T09:20:54;8.67;;;3.90;;
15958;SDS011;8078;47.822;9.402;2022-11-21T09:23:20;123.50;;;10.63;;
15958;SDS011;8078;47.822;9.402;2022-11-21T09:25:45;38.60;;;5.87;;
15958;SDS011;8078;47.822;9.402;2022-11-21T09:28:11;8.53;;;3.97;;
15958;SDS011;8078;47.822;9.402;2022-11-21T09:30:38;13.33;;;4.80;;
15958;SDS011;8078;47.822;9.402;2022-11-21T09:33:06;6.20;;;4.17;;
15958;SDS011;8078;47.822;9.402;2022-11-21T09:35:34;16.73;;;4.77;;
15958;SDS011;8078;47.822;9.402;2022-11-21T09:37:59;18.00;;;4.93;;
15958;SDS011;8078;47.822;9.402;2022-11-21T09:40:25;11.93;;;4.60;;
15958;SDS011;8078;47.822;9.402;2022-11-21T09:43:05;15.43;;;4.50;;
15958;SDS011;8078;47.822;9.402;2022-11-21T09:48:10;16.47;;;4.70;;
15958;SDS011;8078;47.822;9.402;2022-11-21T09:50:38;13.27;;;5.30;;
15958;SDS011;8078;47.822;9.402;2022-11-21T09:53:12;15.03;;;4.67;;
15958;SDS011;8078;47.822;9.402;2022-11-21T09:55:48;11.47;;;5.03;;
15958;SDS011;8078;47.822;9.402;2022-11-21T09:58:19;10.20;;;4.70;;
15958;SDS011;8078;47.822;9.402;2022-11-21T10:00:49;11.80;;;4.50;;
15958;SDS011;8078;47.822;9.402;2022-11-21T10:03:16;10.70;;;4.80;;
15958;SDS011;8078;47.822;9.402;2022-11-21T10:05:57;10.50;;;4.23;;
15958;SDS011;8078;47.822;9.402;2022-11-21T10:08:38;8.30;;;4.40;;
15958;SDS011;8078;47.822;9.402;2022-11-21T10:13:57;8.90;;;3.97;;
15958;SDS011;8078;47.822;9.402;2022-11-21T10:22:05;9.97;;;3.77;;
15958;SDS011;8078;47.822;9.402;2022-11-21T10:24:49;8.27;;;3.53;;
15958;SDS011;8078;47.822;9.402;2022-11-21T10:30:14;8.37;;;3.33;;
15958;SDS011;8078;47.822;9.402;2022-11-21T10:32:43;8.47;;;3.30;;
15958;SDS011;8078;47.822;9.402;2022-11-21T10:37:49;9.00;;;3.17;;
15958;SDS011;8078;47.822;9.402;2022-11-21T10:40:22;6.03;;;3.17;;
15958;SDS011;8078;47.822;9.402;2022-11-21T10:45:19;3.47;;;2.47;;
15958;SDS011;8078;47.822;9.402;2022-11-21T10:47:46;8.03;;;2.70;;
15958;SDS011;8078;47.822;9.402;2022-11-21T10:56:01;7.20;;;2.77;;
15958;SDS011;8078;47.822;9.402;2022-11-21T10:58:34;7.70;;;3.03;;
15958;SDS011;8078;47.822;9.402;2022-11-21T11:01:04;8.97;;;3.60;;
15958;SDS011;8078;47.822;9.402;2022-11-21T11:03:29;9.30;;;2.50;;
15958;SDS011;8078;47.822;9.402;2022-11-21T11:05:56;7.70;;;2.70;;
15958;SDS011;8078;47.822;9.402;2022-11-21T11:08:22;6.90;;;2.70;;
15958;SDS011;8078;47.822;9.402;2022-11-21T11:11:04;6.63;;;3.07;;
15958;SDS011;8078;47.822;9.402;2022-11-21T11:13:31;13.57;;;2.50;;
15958;SDS011;8078;47.822;9.402;2022-11-21T11:16:04;8.07;;;2.63;;
15958;SDS011;8078;47.822;9.402;2022-11-21T11:21:16;7.23;;;2.40;;
15958;SDS011;8078;47.822;9.402;2022-11-21T11:23:44;4.77;;;2.67;;
15958;SDS011;8078;47.822;9.402;2022-11-21T11:26:17;7.73;;;3.10;;
15958;SDS011;8078;47.822;9.402;2022-11-21T11:28:47;4.83;;;2.70;;
15958;SDS011;8078;47.822;9.402;2022-11-21T11:31:13;5.07;;;2.40;;
15958;SDS011;8078;47.822;9.402;2022-11-21T11:33:40;9.53;;;2.20;;
15958;SDS011;8078;47.822;9.402;2022-11-21T11:36:22;6.37;;;2.50;;
15958;SDS011;8078;47.822;9.402;2022-11-21T11:39:02;7.13;;;2.47;;
15958;SDS011;8078;47.822;9.402;2022-11-21T11:41:51;6.03;;;2.30;;
15958;SDS011;8078;47.822;9.402;2022-11-21T11:45:14;3.47;;;2.17;;
15958;SDS011;8078;47.822;9.402;2022-11-21T11:48:07;3.40;;;2.37;;
15958;SDS011;8078;47.822;9.402;2022-11-21T11:50:39;6.67;;;2.40;;
15958;SDS011;8078;47.822;9.402;2022-11-21T11:53:23;5.50;;;2.20;;
15958;SDS011;8078;47.822;9.402;2022-11-21T11:56:09;6.13;;;2.67;;
15958;SDS011;8078;47.822;9.402;2022-11-21T11:58:56;4.47;;;2.10;;
15958;SDS011;8078;47.822;9.402;2022-11-21T12:01:40;4.83;;;1.93;;
15958;SDS011;8078;47.822;9.402;2022-11-21T12:04:11;6.97;;;2.17;;
15958;SDS011;8078;47.822;9.402;2022-11-21T12:06:54;6.90;;;2.10;;
15958;SDS011;8078;47.822;9.402;2022-11-21T12:12:15;6.73;;;2.00;;
15958;SDS011;8078;47.822;9.402;2022-11-21T12:14:49;7.63;;;2.43;;
15958;SDS011;8078;47.822;9.402;2022-11-21T12:17:50;4.97;;;1.77;;
15958;SDS011;8078;47.822;9.402;2022-11-21T12:20:20;7.73;;;2.13;;
15958;SDS011;8078;47.822;9.402;2022-11-21T12:22:53;8.20;;;2.07;;
15958;SDS011;8078;47.822;9.402;2022-11-21T12:25:20;3.63;;;2.03;;
15958;SDS011;8078;47.822;9.402;2022-11-21T12:27:51;5.57;;;2.27;;
15958;SDS011;8078;47.822;9.402;2022-11-21T12:33:00;9.87;;;2.20;;
15958;SDS011;8078;47.822;9.402;2022-11-21T12:44:44;7.07;;;2.30;;
15958;SDS011;8078;47.822;9.402;2022-11-21T12:50:19;6.43;;;1.83;;
15958;SDS011;8078;47.822;9.402;2022-11-21T12:53:15;4.97;;;1.80;;
15958;SDS011;8078;47.822;9.402;2022-11-21T12:56:13;4.03;;;1.70;;
15958;SDS011;8078;47.822;9.402;2022-11-21T12:59:06;5.87;;;2.10;;
15958;SDS011;8078;47.822;9.402;2022-11-21T13:01:41;5.63;;;2.10;;
15958;SDS011;8078;47.822;9.402;2022-11-21T13:04:29;9.43;;;1.87;;
15958;SDS011;8078;47.822;9.402;2022-11-21T13:07:01;4.27;;;1.63;;
15958;SDS011;8078;47.822;9.402;2022-11-21T13:09:29;5.20;;;1.93;;
15958;SDS011;8078;47.822;9.402;2022-11-21T13:14:49;8.73;;;3.23;;
15958;SDS011;8078;47.822;9.402;2022-11-21T13:22:54;6.60;;;2.00;;
15958;SDS011;8078;47.822;9.402;2022-11-21T13:25:37;3.90;;;1.80;;
15958;SDS011;8078;47.822;9.402;2022-11-21T13:30:44;4.07;;;1.93;;
15958;SDS011;8078;47.822;9.402;2022-11-21T13:33:43;3.72;;;1.45;;
15958;SDS011;8078;47.822;9.402;2022-11-21T13:36:11;4.72;;;1.30;;
15958;SDS011;8078;47.822;9.402;2022-11-21T13:52:31;5.80;;;1.52;;
15958;SDS011;8078;47.822;9.402;2022-11-21T13:55:14;2.67;;;1.30;;
15958;SDS011;8078;47.822;9.402;2022-11-21T13:57:55;5.90;;;1.60;;
15958;SDS011;8078;47.822;9.402;2022-11-21T14:00:33;7.40;;;1.83;;
15958;SDS011;8078;47.822;9.402;2022-11-21T14:09:05;3.35;;;1.50;;
15958;SDS011;8078;47.822;9.402;2022-11-21T14:14:33;1.98;;;1.10;;
15958;SDS011;8078;47.822;9.402;2022-11-21T14:20:13;2.33;;;1.30;;
15958;SDS011;8078;47.822;9.402;2022-11-21T14:25:35;2.97;;;1.40;;
15958;SDS011;8078;47.822;9.402;2022-11-21T14:28:25;4.05;;;1.38;;
15958;SDS011;8078;47.822;9.402;2022-11-21T14:31:01;4.13;;;1.25;;
15958;SDS011;8078;47.822;9.402;2022-11-21T14:33:35;5.50;;;1.40;;
15958;SDS011;8078;47.822;9.402;2022-11-21T14:41:20;4.80;;;1.27;;
15958;SDS011;8078;47.822;9.402;2022-11-21T14:46:26;3.83;;;1.50;;
15958;SDS011;8078;47.822;9.402;2022-11-21T14:48:56;5.50;;;1.67;;
15958;SDS011;8078;47.822;9.402;2022-11-21T14:51:40;2.77;;;1.40;;
15958;SDS011;8078;47.822;9.402;2022-11-21T14:54:21;3.83;;;1.83;;
15958;SDS011;8078;47.822;9.402;2022-11-21T14:56:56;5.60;;;1.97;;
15958;SDS011;8078;47.822;9.402;2022-11-21T14:59:25;3.87;;;1.67;;
15958;SDS011;8078;47.822;9.402;2022-11-21T15:01:54;3.13;;;1.60;;
15958;SDS011;8078;47.822;9.402;2022-11-21T15:04:25;3.13;;;1.73;;
15958;SDS011;8078;47.822;9.402;2022-11-21T15:06:53;2.30;;;1.67;;
15958;SDS011;8078;47.822;9.402;2022-11-21T15:09:18;4.23;;;1.73;;
15958;SDS011;8078;47.822;9.402;2022-11-21T15:17:06;3.67;;;1.80;;
15958;SDS011;8078;47.822;9.402;2022-11-21T15:19:36;4.50;;;2.10;;
15958;SDS011;8078;47.822;9.402;2022-11-21T15:22:03;4.03;;;2.33;;
15958;SDS011;8078;47.822;9.402;2022-11-21T15:43:48;7.37;;;2.27;;
15958;SDS011;8078;47.822;9.402;2022-11-21T15:48:55;8.00;;;2.23;;
15958;SDS011;8078;47.822;9.402;2022-11-21T15:51:32;3.60;;;2.30;;
15958;SDS011;8078;47.822;9.402;2022-11-21T15:54:00;4.43;;;2.40;;
15958;SDS011;8078;47.822;9.402;2022-11-21T15:56:26;4.07;;;2.23;;
15958;SDS011;8078;47.822;9.402;2022-11-21T15:58:52;4.80;;;2.20;;
15958;SDS011;8078;47.822;9.402;2022-11-21T16:01:19;3.37;;;2.40;;
15958;SDS011;8078;47.822;9.402;2022-11-21T16:03:53;7.47;;;2.30;;
15958;SDS011;8078;47.822;9.402;2022-11-21T16:06:21;4.57;;;2.67;;
15958;SDS011;8078;47.822;9.402;2022-11-21T16:08:46;2.47;;;2.10;;
15958;SDS011;8078;47.822;9.402;2022-11-21T16:11:17;5.30;;;2.80;;
15958;SDS011;8078;47.822;9.402;2022-11-21T16:13:51;4.23;;;2.37;;
15958;SDS011;8078;47.822;9.402;2022-11-21T16:16:18;9.77;;;2.80;;
15958;SDS011;8078;47.822;9.402;2022-11-21T16:18:46;6.63;;;2.20;;
15958;SDS011;8078;47.822;9.402;2022-11-21T16:21:11;6.33;;;2.37;;
15958;SDS011;8078;47.822;9.402;2022-11-21T16:23:37;5.57;;;2.43;;
15958;SDS011;8078;47.822;9.402;2022-11-21T16:26:03;6.03;;;2.57;;
15958;SDS011;8078;47.822;9.402;2022-11-21T16:28:30;3.53;;;2.40;;
15958;SDS011;8078;47.822;9.402;2022-11-21T16:30:57;10.27;;;2.70;;
15958;SDS011;8078;47.822;9.402;2022-11-21T16:33:23;7.63;;;2.30;;
15958;SDS011;8078;47.822;9.402;2022-11-21T16:35:49;8.33;;;3.10;;
15958;SDS011;8078;47.822;9.402;2022-11-21T16:38:19;10.20;;;3.47;;
15958;SDS011;8078;47.822;9.402;2022-11-21T16:40:53;6.50;;;3.20;;
15958;SDS011;8078;47.822;9.402;2022-11-21T16:43:23;5.33;;;2.80;;
15958;SDS011;8078;47.822;9.402;2022-11-21T16:45:49;3.60;;;2.20;;
15958;SDS011;8078;47.822;9.402;2022-11-21T16:48:16;5.97;;;2.70;;
15958;SDS011;8078;47.822;9.402;2022-11-21T16:50:43;4.90;;;2.50;;
15958;SDS011;8078;47.822;9.402;2022-11-21T16:53:09;5.63;;;2.23;;
15958;SDS011;8078;47.822;9.402;2022-11-21T16:55:34;7.30;;;2.83;;
15958;SDS011;8078;47.822;9.402;2022-11-21T16:58:00;5.70;;;3.00;;
15958;SDS011;8078;47.822;9.402;2022-11-21T17:00:26;4.40;;;2.80;;
15958;SDS011;8078;47.822;9.402;2022-11-21T17:02:52;5.30;;;3.20;;
15958;SDS011;8078;47.822;9.402;2022-11-21T17:05:18;4.17;;;2.93;;